createdAt,value
2022-11-25T00:01:31.244Z,100804.00
2022-11-25T00:04:00.563Z,100798.72
2022-11-25T00:06:30.655Z,100792.44
2022-11-25T00:09:00.032Z,100793.41
2022-11-25T00:11:29.443Z,100802.88
2022-11-25T00:13:58.584Z,100797.75
2022-11-25T00:16:27.741Z,100801.34
2022-11-25T00:18:57.890Z,100796.19
2022-11-25T00:21:27.618Z,100803.28
2022-11-25T00:23:57.325Z,100802.31
2022-11-25T00:26:26.450Z,100802.88
2022-11-25T00:28:57.687Z,100805.53
2022-11-25T00:31:27.350Z,100801.06
2022-11-25T00:33:55.632Z,100799.25
2022-11-25T00:36:25.293Z,100803.03
2022-11-25T00:38:55.542Z,100801.34
2022-11-25T00:41:45.240Z,100808.31
2022-11-25T00:44:35.762Z,100813.31
2022-11-25T00:47:04.907Z,100812.16
2022-11-25T00:49:33.068Z,100818.84
2022-11-25T00:52:14.149Z,100823.72
2022-11-25T00:54:42.104Z,100827.44
2022-11-25T00:57:10.038Z,100831.59
2022-11-25T00:59:39.356Z,100833.13
2022-11-25T01:02:07.986Z,100825.75
2022-11-25T01:04:36.384Z,100827.25
2022-11-25T01:07:15.626Z,100821.31
2022-11-25T01:09:43.607Z,100819.66
2022-11-25T01:12:13.002Z,100823.25
2022-11-25T01:14:42.453Z,100828.41
2022-11-25T01:17:10.482Z,100821.13
2022-11-25T01:19:40.354Z,100823.13
2022-11-25T01:22:16.920Z,100828.28
2022-11-25T01:24:44.792Z,100825.75
2022-11-25T01:27:12.646Z,100826.75
2022-11-25T01:29:43.067Z,100826.75
2022-11-25T01:32:11.061Z,100830.22
2022-11-25T01:34:39.050Z,100832.16
2022-11-25T01:37:09.546Z,100825.91
2022-11-25T01:39:38.824Z,100826.75
2022-11-25T01:42:06.728Z,100830.91
2022-11-25T01:44:38.403Z,100832.72
2022-11-25T01:47:16.212Z,100830.34
2022-11-25T01:49:51.059Z,100839.97
2022-11-25T01:52:25.887Z,100837.31
2022-11-25T01:55:00.015Z,100832.53
2022-11-25T01:57:33.093Z,100836.72
2022-11-25T02:00:05.062Z,100832.28
2022-11-25T02:02:35.841Z,100830.47
2022-11-25T02:05:08.683Z,100833.09
2022-11-25T02:07:39.616Z,100832.41
2022-11-25T02:10:11.089Z,100826.44
2022-11-25T02:12:45.010Z,100827.97
2022-11-25T02:15:15.114Z,100828.09
2022-11-25T02:17:46.707Z,100828.41
2022-11-25T02:20:17.187Z,100831.72
2022-11-25T02:22:58.878Z,100837.84
2022-11-25T02:25:31.258Z,100837.56
2022-11-25T02:28:04.285Z,100830.31
2022-11-25T02:30:33.310Z,100841.59
2022-11-25T02:33:02.411Z,100837.28
2022-11-25T02:35:34.942Z,100839.78
2022-11-25T02:38:08.190Z,100845.44
2022-11-25T02:40:43.071Z,100845.88
2022-11-25T02:43:11.084Z,100848.91
2022-11-25T02:45:52.887Z,100855.56
2022-11-25T02:48:30.195Z,100857.94
2022-11-25T02:51:11.406Z,100864.19
2022-11-25T02:53:40.066Z,100859.88
2022-11-25T02:56:09.958Z,100865.84
2022-11-25T02:58:37.842Z,100867.66
2022-11-25T03:01:06.322Z,100870.03
2022-11-25T03:03:34.855Z,100863.78
2022-11-25T03:06:02.731Z,100869.19
2022-11-25T03:08:31.266Z,100870.88
2022-11-25T03:10:59.089Z,100875.59
2022-11-25T03:13:28.589Z,100882.00
2022-11-25T03:15:57.989Z,100868.78
2022-11-25T03:18:25.868Z,100876.06
2022-11-25T03:20:54.985Z,100878.00
2022-11-25T03:23:23.413Z,100879.97
2022-11-25T03:25:51.393Z,100881.78
2022-11-25T03:28:19.277Z,100881.91
2022-11-25T03:30:48.587Z,100878.16
2022-11-25T03:33:16.761Z,100881.50
2022-11-25T03:35:44.811Z,100883.16
2022-11-25T03:38:12.733Z,100878.84
2022-11-25T03:40:40.990Z,100880.66
2022-11-25T03:43:08.913Z,100879.13
2022-11-25T03:45:36.827Z,100882.88
2022-11-25T03:48:06.441Z,100889.28
2022-11-25T03:50:34.721Z,100880.53
2022-11-25T03:53:02.588Z,100875.09
2022-11-25T03:55:30.447Z,100887.19
2022-11-25T03:58:00.266Z,100876.91
2022-11-25T04:00:28.252Z,100879.25
2022-11-25T04:02:56.609Z,100881.91
2022-11-25T04:05:26.300Z,100886.50
2022-11-25T04:07:57.870Z,100879.31
2022-11-25T04:10:26.272Z,100888.06
2022-11-25T04:12:54.105Z,100895.06
2022-11-25T04:15:22.948Z,100893.00
2022-11-25T04:17:51.831Z,100891.31
2022-11-25T04:20:20.066Z,100886.03
2022-11-25T04:22:49.375Z,100877.94
2022-11-25T04:25:17.376Z,100873.47
2022-11-25T04:27:45.886Z,100876.69
2022-11-25T04:30:17.264Z,100880.03
2022-11-25T04:32:45.153Z,100876.13
2022-11-25T04:35:13.082Z,100876.66
2022-11-25T04:37:41.306Z,100885.28
2022-11-25T04:40:11.965Z,100897.38
2022-11-25T04:42:40.779Z,100900.72
2022-11-25T04:45:26.464Z,100895.16
2022-11-25T04:47:54.445Z,100897.53
2022-11-25T04:50:24.094Z,100900.56
2022-11-25T04:52:51.942Z,100903.63
2022-11-25T04:55:21.225Z,100905.81
2022-11-25T04:57:49.150Z,100907.63
2022-11-25T05:00:16.866Z,100896.63
2022-11-25T05:02:44.838Z,100901.91
2022-11-25T05:05:12.834Z,100900.25
2022-11-25T05:07:40.800Z,100902.19
2022-11-25T05:10:09.882Z,100900.00
2022-11-25T05:12:40.372Z,100902.22
2022-11-25T05:15:10.882Z,100904.31
2022-11-25T05:17:50.939Z,100892.53
2022-11-25T05:20:19.093Z,100890.72
2022-11-25T05:22:47.051Z,100890.72
2022-11-25T05:25:16.624Z,100893.34
2022-11-25T05:27:46.136Z,100896.28
2022-11-25T05:30:14.526Z,100894.59
2022-11-25T05:32:42.428Z,100908.53
2022-11-25T05:35:10.481Z,100903.09
2022-11-25T05:37:38.341Z,100915.63
2022-11-25T05:40:07.518Z,100918.13
2022-11-25T05:42:35.852Z,100916.31
2022-11-25T05:45:05.747Z,100917.16
2022-11-25T05:47:33.604Z,100916.19
2022-11-25T05:50:01.501Z,100918.97
2022-11-25T05:52:29.396Z,100916.31
2022-11-25T05:54:57.690Z,100923.41
2022-11-25T05:57:25.602Z,100926.91
2022-11-25T05:59:55.492Z,100913.94
2022-11-25T06:02:24.825Z,100920.22
2022-11-25T06:04:52.762Z,100916.03
2022-11-25T06:07:20.887Z,100913.53
2022-11-25T06:09:48.770Z,100926.09
2022-11-25T06:12:16.607Z,100924.25
2022-11-25T06:14:44.502Z,100929.53
2022-11-25T06:17:12.367Z,100926.88
2022-11-25T06:19:41.700Z,100925.53
2022-11-25T06:22:09.530Z,100925.66
2022-11-25T06:24:37.707Z,100929.00
2022-11-25T06:27:05.806Z,100934.97
2022-11-25T06:29:35.862Z,100936.66
2022-11-25T06:32:03.771Z,100937.19
2022-11-25T06:34:31.746Z,100938.72
2022-11-25T06:37:01.044Z,100937.75
2022-11-25T06:39:28.910Z,100946.38
2022-11-25T06:41:56.838Z,100940.81
2022-11-25T06:44:24.721Z,100943.16
2022-11-25T06:46:52.618Z,100943.97
2022-11-25T06:49:20.542Z,100944.69
2022-11-25T06:51:51.629Z,100947.47
2022-11-25T06:54:20.906Z,100948.56
2022-11-25T06:56:53.860Z,100950.56
2022-11-25T06:59:22.593Z,100950.97
2022-11-25T07:01:50.550Z,100955.56
2022-11-25T07:04:18.491Z,100965.28
2022-11-25T07:06:46.353Z,100964.59
2022-11-25T07:09:14.219Z,100961.13
2022-11-25T07:11:44.973Z,100964.19
2022-11-25T07:14:15.375Z,100960.84
2022-11-25T07:16:45.088Z,100970.47
2022-11-25T07:19:14.186Z,100975.06
2022-11-25T07:21:43.501Z,100965.19
2022-11-25T07:24:12.518Z,100965.88
2022-11-25T07:26:42.132Z,100969.19
2022-11-25T07:29:44.299Z,100958.34
2022-11-25T07:32:10.598Z,100971.41
2022-11-25T07:34:39.144Z,100974.91
2022-11-25T07:37:07.210Z,100972.25
2022-11-25T07:39:56.480Z,100969.63
2022-11-25T07:42:25.466Z,100985.06
2022-11-25T07:44:54.820Z,100985.19
2022-11-25T07:47:22.875Z,100990.63
2022-11-25T07:49:50.759Z,100986.44
2022-11-25T07:52:20.191Z,100980.31
2022-11-25T07:54:50.985Z,100988.25
2022-11-25T07:57:18.830Z,100991.59
2022-11-25T07:59:46.707Z,100988.25
2022-11-25T08:02:16.009Z,100996.19
2022-11-25T08:04:44.320Z,100995.78
2022-11-25T08:07:12.794Z,100982.28
2022-11-25T08:09:51.604Z,100991.19
2022-11-25T08:12:19.699Z,100993.41
2022-11-25T08:14:48.589Z,100992.19
2022-11-25T08:17:17.819Z,100996.91
2022-11-25T08:19:45.662Z,100998.84
2022-11-25T08:22:13.583Z,100993.56
2022-11-25T08:24:41.517Z,100996.91
2022-11-25T08:27:09.330Z,100998.72
2022-11-25T08:29:37.402Z,100992.59
2022-11-25T08:32:11.626Z,101003.16
2022-11-25T08:34:41.339Z,101002.06
2022-11-25T08:37:09.284Z,100998.44
2022-11-25T08:39:52.347Z,100989.22
2022-11-25T08:42:21.295Z,101000.91
2022-11-25T08:44:53.107Z,101007.72
2022-11-25T08:47:21.084Z,101009.28
2022-11-25T08:49:53.616Z,101003.97
2022-11-25T08:52:22.034Z,100998.41
2022-11-25T08:54:50.867Z,101006.22
2022-11-25T08:57:18.740Z,100996.88
2022-11-25T08:59:47.086Z,100997.03
2022-11-25T09:02:18.023Z,100999.81
2022-11-25T09:04:46.184Z,101007.88
2022-11-25T09:07:15.609Z,101005.66
2022-11-25T09:09:44.170Z,101006.22
2022-11-25T09:12:15.368Z,101012.88
2022-11-25T09:14:43.371Z,101012.47
2022-11-25T09:17:11.850Z,101010.94
2022-11-25T09:19:40.031Z,101018.56
2022-11-25T09:22:08.968Z,101025.53
2022-11-25T09:24:38.273Z,101021.91
2022-11-25T09:27:06.618Z,101020.09
2022-11-25T09:29:35.065Z,101027.63
2022-11-25T09:32:03.377Z,101028.84
2022-11-25T09:34:36.560Z,101028.16
2022-11-25T09:37:04.726Z,101027.59
2022-11-25T09:39:35.691Z,101023.69
2022-11-25T09:42:38.954Z,101028.00
2022-11-25T09:45:33.426Z,101025.78
2022-11-25T09:48:11.831Z,101027.44
2022-11-25T09:50:52.538Z,101027.28
2022-11-25T09:53:35.227Z,101037.44
2022-11-25T09:56:05.374Z,101033.53
2022-11-25T09:58:38.384Z,101038.38
2022-11-25T10:01:08.527Z,101039.63
2022-11-25T10:03:42.342Z,101042.00
2022-11-25T10:06:16.397Z,101044.38
2022-11-25T10:08:45.861Z,101044.75
2022-11-25T10:11:26.275Z,101041.41
2022-11-25T10:14:02.441Z,101042.81
2022-11-25T10:16:37.007Z,101035.84
2022-11-25T10:19:16.953Z,101035.84
2022-11-25T10:21:46.384Z,101043.91
2022-11-25T10:24:16.034Z,101047.53
2022-11-25T10:26:46.084Z,101034.03
2022-11-25T10:29:39.156Z,101042.81
2022-11-25T10:32:20.123Z,101048.78
2022-11-25T10:34:51.655Z,101045.31
2022-11-25T10:37:28.927Z,101052.41
2022-11-25T10:39:56.827Z,101053.13
2022-11-25T10:42:27.194Z,101053.13
2022-11-25T10:44:56.639Z,101058.41
2022-11-25T10:47:36.637Z,101059.38
2022-11-25T10:50:26.738Z,101069.44
2022-11-25T10:53:00.115Z,101058.97
2022-11-25T10:55:31.050Z,101069.72
2022-11-25T10:57:59.448Z,101076.81
2022-11-25T11:00:32.720Z,101074.16
2022-11-25T11:03:13.841Z,101080.44
2022-11-25T11:05:47.039Z,101076.28
2022-11-25T11:08:21.980Z,101082.94
2022-11-25T11:11:14.764Z,101080.72
2022-11-25T11:13:44.983Z,101081.53
2022-11-25T11:16:27.992Z,101064.16
2022-11-25T11:18:57.148Z,101068.94
2022-11-25T11:21:31.090Z,101066.00
2022-11-25T11:24:00.671Z,101073.81
2022-11-25T11:26:31.250Z,101074.94
2022-11-25T11:29:02.754Z,101083.13
2022-11-25T11:31:36.395Z,101079.06
2022-11-25T11:34:22.396Z,101076.72
2022-11-25T11:37:02.804Z,101076.00
2022-11-25T11:39:51.503Z,101083.25
2022-11-25T11:42:30.808Z,101081.06
2022-11-25T11:45:11.618Z,101075.91
2022-11-25T11:47:54.076Z,101083.84
2022-11-25T11:50:28.694Z,101083.84
2022-11-25T11:53:03.334Z,101082.88
2022-11-25T11:55:43.436Z,101085.50
2022-11-25T11:58:26.870Z,101078.28
2022-11-25T12:01:05.868Z,101077.69
2022-11-25T12:03:42.873Z,101075.72
2022-11-25T12:06:13.311Z,101075.88
2022-11-25T12:08:49.777Z,101075.44
2022-11-25T12:11:22.143Z,101080.28
2022-11-25T12:14:01.131Z,101078.75
2022-11-25T12:16:35.238Z,101075.53
2022-11-25T12:19:14.895Z,101070.78
2022-11-25T12:21:49.202Z,101072.31
2022-11-25T12:24:23.777Z,101078.00
2022-11-25T12:26:59.013Z,101077.00
2022-11-25T12:29:35.297Z,101083.97
2022-11-25T12:32:31.382Z,101083.97
2022-11-25T12:35:06.002Z,101083.13
2022-11-25T12:37:40.646Z,101091.63
2022-11-25T12:40:15.922Z,101080.91
2022-11-25T12:42:47.543Z,101084.66
2022-11-25T12:45:23.103Z,101082.31
2022-11-25T12:47:51.581Z,101093.72
2022-11-25T12:50:37.915Z,101092.75
2022-11-25T12:53:13.469Z,101093.72
2022-11-25T12:55:41.992Z,101086.09
2022-11-25T12:58:42.499Z,101103.25
2022-11-25T13:01:43.300Z,101092.25
2022-11-25T13:04:50.547Z,101102.47
2022-11-25T13:07:45.751Z,101101.06
2022-11-25T13:10:33.691Z,101104.13
2022-11-25T13:13:28.452Z,101099.28
2022-11-25T13:16:00.744Z,101100.25
2022-11-25T13:18:33.335Z,101110.69
2022-11-25T13:21:08.294Z,101102.63
2022-11-25T13:23:50.070Z,101106.09
2022-11-25T13:26:50.128Z,101106.25
2022-11-25T13:30:03.338Z,101096.25
2022-11-25T13:32:43.325Z,101099.03
2022-11-25T13:35:33.263Z,101104.03
2022-11-25T13:38:01.385Z,101096.94
2022-11-25T13:40:39.193Z,101102.09
2022-11-25T13:43:22.023Z,101105.41
2022-11-25T13:45:50.717Z,101117.66
2022-11-25T13:48:22.158Z,101113.50
2022-11-25T13:53:40.562Z,101122.16
2022-11-25T13:56:27.429Z,101116.44
2022-11-25T13:59:21.967Z,101122.72
2022-11-25T14:01:56.183Z,101134.69
2022-11-25T14:04:42.648Z,101133.44
2022-11-25T14:07:23.374Z,101135.25
2022-11-25T14:10:17.036Z,101137.91
2022-11-25T14:13:12.600Z,101138.75
2022-11-25T14:16:02.336Z,101139.31
2022-11-25T14:21:56.510Z,101141.25
2022-11-25T14:24:35.617Z,101147.09
2022-11-25T14:27:05.688Z,101147.63
2022-11-25T14:29:43.027Z,101145.56
2022-11-25T14:32:15.995Z,101144.84
2022-11-25T14:34:47.157Z,101143.19
2022-11-25T14:37:21.380Z,101140.13
2022-11-25T14:39:56.825Z,101139.44
2022-11-25T14:42:28.763Z,101142.22
2022-11-25T14:44:58.498Z,101139.84
2022-11-25T14:47:28.803Z,101149.59
2022-11-25T14:50:19.233Z,101145.84
2022-11-25T14:52:48.372Z,101145.84
2022-11-25T14:55:27.927Z,101151.97
2022-11-25T14:57:56.808Z,101150.41
2022-11-25T15:00:26.622Z,101158.34
2022-11-25T15:02:57.259Z,101154.03
2022-11-25T15:05:27.347Z,101144.03
2022-11-25T15:08:00.390Z,101157.78
2022-11-25T15:10:39.388Z,101154.19
2022-11-25T15:13:14.892Z,101156.56
2022-11-25T15:15:47.970Z,101153.50
2022-11-25T15:18:21.499Z,101156.69
2022-11-25T15:20:52.570Z,101159.34
2022-11-25T15:23:32.834Z,101155.72
2022-11-25T15:26:01.219Z,101158.22
2022-11-25T15:28:35.372Z,101162.41
2022-11-25T15:31:10.716Z,101164.09
2022-11-25T15:33:39.965Z,101156.97
2022-11-25T15:36:08.501Z,101150.16
2022-11-25T15:38:41.176Z,101154.59
2022-11-25T15:41:21.463Z,101146.25
2022-11-25T15:43:52.035Z,101151.53
2022-11-25T15:46:22.395Z,101149.88
2022-11-25T15:48:53.719Z,101157.66
2022-11-25T15:51:34.897Z,101156.69
2022-11-25T15:54:06.601Z,101156.56
2022-11-25T15:56:38.767Z,101159.91
2022-11-25T15:59:06.788Z,101158.63
2022-11-25T16:01:40.016Z,101161.56
2022-11-25T16:04:18.782Z,101160.31
2022-11-25T16:06:55.418Z,101156.56
2022-11-25T16:09:28.655Z,101161.41
2022-11-25T16:12:07.738Z,101158.88
2022-11-25T16:14:38.348Z,101159.59
2022-11-25T16:17:12.109Z,101157.66
2022-11-25T16:19:43.278Z,101161.53
2022-11-25T16:22:15.126Z,101162.09
2022-11-25T16:24:49.536Z,101165.31
2022-11-25T16:27:20.628Z,101166.88
2022-11-25T16:29:55.189Z,101175.63
2022-11-25T16:32:26.664Z,101174.09
2022-11-25T16:34:57.617Z,101167.41
2022-11-25T16:37:28.952Z,101166.00
2022-11-25T16:39:56.800Z,101164.88
2022-11-25T16:42:24.641Z,101165.03
2022-11-25T16:44:53.760Z,101160.03
2022-11-25T16:47:24.546Z,101158.75
2022-11-25T16:49:52.422Z,101172.94
2022-11-25T16:52:20.444Z,101168.91
2022-11-25T16:54:48.340Z,101165.41
2022-11-25T16:57:21.434Z,101175.31
2022-11-25T16:59:55.895Z,101175.44
2022-11-25T17:02:28.045Z,101178.94
2022-11-25T17:04:58.496Z,101180.47
2022-11-25T17:07:34.166Z,101184.75
2022-11-25T17:10:02.875Z,101187.97
2022-11-25T17:12:33.364Z,101179.50
2022-11-25T17:15:04.731Z,101184.94
2022-11-25T17:17:35.067Z,101182.03
2022-11-25T17:20:02.996Z,101171.19
2022-11-25T17:22:34.776Z,101176.19
2022-11-25T17:25:07.177Z,101171.84
2022-11-25T17:27:35.455Z,101176.59
2022-11-25T17:30:06.797Z,101171.44
2022-11-25T17:32:37.061Z,101173.25
2022-11-25T17:35:05.579Z,101173.13
2022-11-25T17:37:33.857Z,101168.66
2022-11-25T17:40:02.221Z,101160.47
2022-11-25T17:42:31.878Z,101157.53
2022-11-25T17:45:00.041Z,101162.94
2022-11-25T17:47:28.344Z,101164.91
2022-11-25T17:49:58.485Z,101173.00
2022-11-25T17:52:26.404Z,101171.44
2022-11-25T17:54:54.274Z,101170.75
2022-11-25T17:57:25.612Z,101172.56
2022-11-25T17:59:53.531Z,101180.94
2022-11-25T18:02:23.376Z,101185.50
2022-11-25T18:04:51.566Z,101187.31
2022-11-25T18:07:20.873Z,101188.28
2022-11-25T18:09:49.306Z,101198.59
2022-11-25T18:12:20.815Z,101199.31
2022-11-25T18:14:48.968Z,101201.66
2022-11-25T18:17:19.316Z,101204.19
2022-11-25T18:19:54.540Z,101205.84
2022-11-25T18:22:25.004Z,101206.69
2022-11-25T18:24:53.824Z,101202.09
2022-11-25T18:27:23.815Z,101203.91
2022-11-25T18:29:52.640Z,101213.09
2022-11-25T18:32:20.677Z,101213.38
2022-11-25T18:34:48.592Z,101204.88
2022-11-25T18:37:16.555Z,101213.06
2022-11-25T18:39:46.614Z,101218.38
2022-11-25T18:42:24.434Z,101220.03
2022-11-25T18:44:53.048Z,101221.00
2022-11-25T18:47:21.003Z,101223.53
2022-11-25T18:49:55.193Z,101230.22
2022-11-25T18:52:23.612Z,101231.47
2022-11-25T18:54:53.035Z,101218.53
2022-11-25T18:57:21.203Z,101219.91
2022-11-25T19:00:10.294Z,101218.09
2022-11-25T19:02:51.020Z,101210.16
2022-11-25T19:05:21.884Z,101219.91
2022-11-25T19:07:53.516Z,101222.56
2022-11-25T19:10:26.124Z,101219.25
2022-11-25T19:12:59.058Z,101216.59
2022-11-25T19:15:28.459Z,101211.97
2022-11-25T19:17:59.458Z,101220.63
2022-11-25T19:20:28.518Z,101222.16
2022-11-25T19:23:00.555Z,101227.19
2022-11-25T19:25:30.634Z,101225.13
2022-11-25T19:28:00.822Z,101221.63
2022-11-25T19:30:33.027Z,101230.94
2022-11-25T19:33:03.264Z,101221.19
2022-11-25T19:35:34.353Z,101226.09
2022-11-25T19:38:02.316Z,101221.75
2022-11-25T19:40:38.989Z,101229.00
2022-11-25T19:43:08.677Z,101223.72
2022-11-25T19:45:37.832Z,101219.25
2022-11-25T19:48:09.198Z,101232.91
2022-11-25T19:50:40.138Z,101236.28
2022-11-25T19:53:15.171Z,101235.44
2022-11-25T19:55:45.269Z,101235.44
2022-11-25T19:58:13.837Z,101244.75
2022-11-25T20:00:43.571Z,101244.03
2022-11-25T20:03:18.750Z,101250.75
2022-11-25T20:05:47.381Z,101243.91
2022-11-25T20:08:19.933Z,101248.94
2022-11-25T20:10:49.695Z,101253.25
2022-11-25T20:13:17.902Z,101250.63
2022-11-25T20:15:47.526Z,101266.22
2022-11-25T20:18:18.642Z,101265.09
2022-11-25T20:20:48.896Z,101263.00
2022-11-25T20:23:22.503Z,101266.09
2022-11-25T20:25:51.952Z,101261.50
2022-11-25T20:28:22.361Z,101273.47
2022-11-25T20:30:51.214Z,101273.72
2022-11-25T20:33:24.072Z,101275.28
2022-11-25T20:36:02.287Z,101273.06
2022-11-25T20:38:32.580Z,101271.09
2022-11-25T20:41:02.805Z,101267.91
2022-11-25T20:43:32.716Z,101268.75
2022-11-25T20:46:02.147Z,101270.81
2022-11-25T20:48:31.260Z,101275.41
2022-11-25T20:51:01.550Z,101285.28
2022-11-25T20:53:32.070Z,101278.63
2022-11-25T20:56:02.011Z,101274.69
2022-11-25T20:58:31.892Z,101284.72
2022-11-25T21:01:00.365Z,101281.53
2022-11-25T21:03:28.692Z,101290.44
2022-11-25T21:05:58.221Z,101292.94
2022-11-25T21:08:30.915Z,101286.41
2022-11-25T21:11:01.508Z,101289.34
2022-11-25T21:13:31.578Z,101294.22
2022-11-25T21:16:00.316Z,101300.91
2022-11-25T21:18:28.319Z,101301.47
2022-11-25T21:20:58.272Z,101301.22
2022-11-25T21:23:29.572Z,101295.91
2022-11-25T21:26:05.225Z,101298.41
2022-11-25T21:28:36.138Z,101294.50
2022-11-25T21:31:09.799Z,101306.78
2022-11-25T21:33:39.161Z,101304.69
2022-11-25T21:36:10.849Z,101306.25
2022-11-25T21:38:38.870Z,101300.94
2022-11-25T21:41:08.786Z,101310.25
2022-11-25T21:43:40.929Z,101309.28
2022-11-25T21:46:14.074Z,101301.91
2022-11-25T21:48:42.403Z,101305.66
2022-11-25T21:51:12.728Z,101301.34
2022-11-25T21:53:41.297Z,101313.88
2022-11-25T21:56:18.320Z,101312.22
2022-11-25T21:58:46.414Z,101316.28
2022-11-25T22:01:24.755Z,101314.72
2022-11-25T22:03:53.099Z,101318.47
2022-11-25T22:06:23.792Z,101317.78
2022-11-25T22:08:52.241Z,101313.75
2022-11-25T22:11:24.201Z,101320.72
2022-11-25T22:13:52.521Z,101317.09
2022-11-25T22:16:27.474Z,101314.84
2022-11-25T22:18:55.705Z,101321.56
2022-11-25T22:21:23.744Z,101322.13
2022-11-25T22:23:51.889Z,101318.50
2022-11-25T22:26:28.354Z,101322.97
2022-11-25T22:28:56.975Z,101327.13
2022-11-25T22:31:26.235Z,101329.66
2022-11-25T22:33:54.964Z,101340.25
2022-11-25T22:36:34.153Z,101339.25
2022-11-25T22:39:13.217Z,101335.06
2022-11-25T22:41:43.551Z,101340.50
2022-11-25T22:44:18.642Z,101345.66
2022-11-25T22:46:46.816Z,101346.50
2022-11-25T22:49:35.216Z,101346.50
2022-11-25T22:52:03.678Z,101348.31
2022-11-25T22:54:39.342Z,101349.47
2022-11-25T22:57:09.174Z,101358.50
2022-11-25T22:59:37.410Z,101359.75
2022-11-25T23:02:05.550Z,101358.19
2022-11-25T23:04:34.034Z,101361.56
2022-11-25T23:07:02.055Z,101359.88
2022-11-25T23:09:30.171Z,101348.88
2022-11-25T23:11:58.534Z,101353.34
2022-11-25T23:14:28.214Z,101359.75
2022-11-25T23:16:56.239Z,101360.00
2022-11-25T23:19:24.466Z,101361.09
2022-11-25T23:21:52.367Z,101353.72
2022-11-25T23:24:20.318Z,101360.00
2022-11-25T23:26:51.272Z,101355.78
2022-11-25T23:29:19.215Z,101366.13
2022-11-25T23:31:49.467Z,101365.81
2022-11-25T23:34:17.980Z,101359.16
2022-11-25T23:36:47.906Z,101356.13
2022-11-25T23:39:20.022Z,101351.09
2022-11-25T23:41:48.864Z,101357.81
2022-11-25T23:44:22.998Z,101359.47
2022-11-25T23:46:52.958Z,101357.09
2022-11-25T23:49:26.603Z,101353.03
2022-11-25T23:52:00.284Z,101354.44
2022-11-25T23:54:40.451Z,101357.34
2022-11-25T23:57:14.379Z,101361.81
2022-11-25T23:59:42.485Z,101363.88
